sensor_id;sensor_type;location;lat;lon;timestamp;P1;durP1;ratioP1;P2;durP2;ratioP2
60318;SDS011;46163;52.306;5.634;2023-12-14T00:00:16;5.65;;;4.82;;
60318;SDS011;46163;52.306;5.634;2023-12-14T00:02:43;6.50;;;5.00;;
60318;SDS011;46163;52.306;5.634;2023-12-14T00:05:08;7.35;;;5.82;;
60318;SDS011;46163;52.306;5.634;2023-12-14T00:07:33;5.97;;;4.80;;
60318;SDS011;46163;52.306;5.634;2023-12-14T00:09:59;6.50;;;5.50;;
60318;SDS011;46163;52.306;5.634;2023-12-14T00:12:24;8.70;;;5.30;;
60318;SDS011;46163;52.306;5.634;2023-12-14T00:14:49;5.68;;;4.78;;
60318;SDS011;46163;52.306;5.634;2023-12-14T00:17:15;5.55;;;4.95;;
60318;SDS011;46163;52.306;5.634;2023-12-14T00:19:40;7.28;;;5.38;;
60318;SDS011;46163;52.306;5.634;2023-12-14T00:22:06;5.13;;;4.60;;
60318;SDS011;46163;52.306;5.634;2023-12-14T00:24:31;5.07;;;4.53;;
60318;SDS011;46163;52.306;5.634;2023-12-14T00:26:56;5.47;;;4.97;;
60318;SDS011;46163;52.306;5.634;2023-12-14T00:29:22;4.75;;;4.32;;
60318;SDS011;46163;52.306;5.634;2023-12-14T00:31:47;7.22;;;4.75;;
60318;SDS011;46163;52.306;5.634;2023-12-14T00:34:13;6.60;;;5.57;;
60318;SDS011;46163;52.306;5.634;2023-12-14T00:36:38;5.72;;;4.72;;
60318;SDS011;46163;52.306;5.634;2023-12-14T00:39:04;4.40;;;4.00;;
60318;SDS011;46163;52.306;5.634;2023-12-14T00:41:30;6.28;;;5.25;;
60318;SDS011;46163;52.306;5.634;2023-12-14T00:43:55;5.78;;;3.85;;
60318;SDS011;46163;52.306;5.634;2023-12-14T00:46:20;8.90;;;4.57;;
60318;SDS011;46163;52.306;5.634;2023-12-14T00:48:46;6.13;;;4.35;;
60318;SDS011;46163;52.306;5.634;2023-12-14T00:51:11;6.07;;;5.00;;
60318;SDS011;46163;52.306;5.634;2023-12-14T00:53:36;4.95;;;4.25;;
60318;SDS011;46163;52.306;5.634;2023-12-14T00:56:02;6.35;;;5.10;;
60318;SDS011;46163;52.306;5.634;2023-12-14T00:58:27;5.50;;;4.65;;
60318;SDS011;46163;52.306;5.634;2023-12-14T01:00:52;4.80;;;4.30;;
60318;SDS011;46163;52.306;5.634;2023-12-14T01:03:19;5.68;;;4.63;;
60318;SDS011;46163;52.306;5.634;2023-12-14T01:05:45;6.32;;;4.80;;
60318;SDS011;46163;52.306;5.634;2023-12-14T01:08:10;6.75;;;4.57;;
60318;SDS011;46163;52.306;5.634;2023-12-14T01:10:35;4.97;;;4.47;;
60318;SDS011;46163;52.306;5.634;2023-12-14T01:13:01;5.75;;;5.15;;
60318;SDS011;46163;52.306;5.634;2023-12-14T01:15:26;7.93;;;5.30;;
60318;SDS011;46163;52.306;5.634;2023-12-14T01:17:52;6.10;;;5.28;;
60318;SDS011;46163;52.306;5.634;2023-12-14T01:20:17;6.53;;;5.38;;
60318;SDS011;46163;52.306;5.634;2023-12-14T01:22:42;6.95;;;5.55;;
60318;SDS011;46163;52.306;5.634;2023-12-14T01:25:08;7.60;;;5.43;;
60318;SDS011;46163;52.306;5.634;2023-12-14T01:27:33;7.57;;;5.95;;
60318;SDS011;46163;52.306;5.634;2023-12-14T01:29:58;5.22;;;4.55;;
60318;SDS011;46163;52.306;5.634;2023-12-14T01:32:23;5.78;;;4.47;;
60318;SDS011;46163;52.306;5.634;2023-12-14T01:34:49;6.00;;;5.30;;
60318;SDS011;46163;52.306;5.634;2023-12-14T01:37:14;5.18;;;4.38;;
60318;SDS011;46163;52.306;5.634;2023-12-14T01:39:39;5.80;;;5.20;;
60318;SDS011;46163;52.306;5.634;2023-12-14T01:42:05;5.72;;;5.05;;
60318;SDS011;46163;52.306;5.634;2023-12-14T01:44:30;4.57;;;4.18;;
60318;SDS011;46163;52.306;5.634;2023-12-14T01:46:56;5.18;;;4.57;;
60318;SDS011;46163;52.306;5.634;2023-12-14T01:49:21;6.60;;;5.45;;
60318;SDS011;46163;52.306;5.634;2023-12-14T01:51:46;5.85;;;5.00;;
60318;SDS011;46163;52.306;5.634;2023-12-14T01:54:12;7.25;;;6.15;;
60318;SDS011;46163;52.306;5.634;2023-12-14T01:56:37;5.32;;;4.82;;
60318;SDS011;46163;52.306;5.634;2023-12-14T01:59:02;5.88;;;5.07;;
60318;SDS011;46163;52.306;5.634;2023-12-14T02:01:38;7.18;;;5.50;;
60318;SDS011;46163;52.306;5.634;2023-12-14T02:04:07;5.97;;;5.38;;
60318;SDS011;46163;52.306;5.634;2023-12-14T02:06:33;7.38;;;5.13;;
60318;SDS011;46163;52.306;5.634;2023-12-14T02:08:58;5.35;;;4.78;;
60318;SDS011;46163;52.306;5.634;2023-12-14T02:11:24;7.85;;;5.22;;
60318;SDS011;46163;52.306;5.634;2023-12-14T02:13:49;5.45;;;4.82;;
60318;SDS011;46163;52.306;5.634;2023-12-14T02:16:14;6.60;;;5.43;;
60318;SDS011;46163;52.306;5.634;2023-12-14T02:18:40;5.57;;;4.97;;
60318;SDS011;46163;52.306;5.634;2023-12-14T02:21:06;6.30;;;5.10;;
60318;SDS011;46163;52.306;5.634;2023-12-14T02:23:31;4.90;;;4.40;;
60318;SDS011;46163;52.306;5.634;2023-12-14T02:25:57;6.03;;;5.00;;
60318;SDS011;46163;52.306;5.634;2023-12-14T02:28:22;5.28;;;4.57;;
60318;SDS011;46163;52.306;5.634;2023-12-14T02:30:47;6.10;;;5.07;;
60318;SDS011;46163;52.306;5.634;2023-12-14T02:33:13;4.90;;;4.40;;
60318;SDS011;46163;52.306;5.634;2023-12-14T02:35:38;7.05;;;5.25;;
60318;SDS011;46163;52.306;5.634;2023-12-14T02:38:03;4.78;;;4.25;;
60318;SDS011;46163;52.306;5.634;2023-12-14T02:40:29;5.95;;;4.50;;
60318;SDS011;46163;52.306;5.634;2023-12-14T02:42:54;6.85;;;4.82;;
60318;SDS011;46163;52.306;5.634;2023-12-14T02:45:19;7.82;;;4.88;;
60318;SDS011;46163;52.306;5.634;2023-12-14T02:47:45;5.95;;;5.35;;
60318;SDS011;46163;52.306;5.634;2023-12-14T02:50:12;6.30;;;5.10;;
60318;SDS011;46163;52.306;5.634;2023-12-14T02:52:38;5.28;;;4.72;;
60318;SDS011;46163;52.306;5.634;2023-12-14T02:55:03;6.93;;;5.07;;
60318;SDS011;46163;52.306;5.634;2023-12-14T02:57:29;6.03;;;4.97;;
60318;SDS011;46163;52.306;5.634;2023-12-14T02:59:54;7.35;;;4.97;;
60318;SDS011;46163;52.306;5.634;2023-12-14T03:02:20;7.00;;;5.28;;
60318;SDS011;46163;52.306;5.634;2023-12-14T03:04:45;6.05;;;5.00;;
60318;SDS011;46163;52.306;5.634;2023-12-14T03:07:10;8.20;;;4.88;;
60318;SDS011;46163;52.306;5.634;2023-12-14T03:09:38;5.35;;;4.85;;
60318;SDS011;46163;52.306;5.634;2023-12-14T03:12:06;6.45;;;5.38;;
60318;SDS011;46163;52.306;5.634;2023-12-14T03:14:32;8.18;;;5.28;;
60318;SDS011;46163;52.306;5.634;2023-12-14T03:16:58;6.30;;;4.78;;
60318;SDS011;46163;52.306;5.634;2023-12-14T03:19:24;5.20;;;4.70;;
60318;SDS011;46163;52.306;5.634;2023-12-14T03:21:49;6.65;;;5.43;;
60318;SDS011;46163;52.306;5.634;2023-12-14T03:24:15;6.40;;;5.65;;
60318;SDS011;46163;52.306;5.634;2023-12-14T03:26:40;5.95;;;5.00;;
60318;SDS011;46163;52.306;5.634;2023-12-14T03:29:06;5.05;;;4.55;;
60318;SDS011;46163;52.306;5.634;2023-12-14T03:31:33;7.05;;;5.78;;
60318;SDS011;46163;52.306;5.634;2023-12-14T03:33:58;5.07;;;4.57;;
60318;SDS011;46163;52.306;5.634;2023-12-14T03:36:23;7.10;;;4.78;;
60318;SDS011;46163;52.306;5.634;2023-12-14T03:38:51;5.30;;;4.60;;
60318;SDS011;46163;52.306;5.634;2023-12-14T03:41:17;5.10;;;4.38;;
60318;SDS011;46163;52.306;5.634;2023-12-14T03:43:42;5.88;;;4.82;;
60318;SDS011;46163;52.306;5.634;2023-12-14T03:46:07;7.03;;;5.40;;
60318;SDS011;46163;52.306;5.634;2023-12-14T03:48:33;5.75;;;5.03;;
60318;SDS011;46163;52.306;5.634;2023-12-14T03:51:01;4.97;;;4.47;;
60318;SDS011;46163;52.306;5.634;2023-12-14T03:53:30;4.82;;;4.22;;
60318;SDS011;46163;52.306;5.634;2023-12-14T03:55:55;5.78;;;4.10;;
60318;SDS011;46163;52.306;5.634;2023-12-14T03:58:21;4.82;;;4.32;;
60318;SDS011;46163;52.306;5.634;2023-12-14T04:00:47;4.32;;;3.92;;
60318;SDS011;46163;52.306;5.634;2023-12-14T04:03:12;6.10;;;4.25;;
60318;SDS011;46163;52.306;5.634;2023-12-14T04:05:38;4.95;;;4.10;;
60318;SDS011;46163;52.306;5.634;2023-12-14T04:08:03;5.70;;;4.70;;
60318;SDS011;46163;52.306;5.634;2023-12-14T04:10:29;7.05;;;5.05;;
60318;SDS011;46163;52.306;5.634;2023-12-14T04:12:55;5.15;;;4.65;;
60318;SDS011;46163;52.306;5.634;2023-12-14T04:15:20;4.90;;;4.40;;
60318;SDS011;46163;52.306;5.634;2023-12-14T04:17:46;5.82;;;4.63;;
60318;SDS011;46163;52.306;5.634;2023-12-14T04:20:12;6.45;;;4.90;;
60318;SDS011;46163;52.306;5.634;2023-12-14T04:22:40;5.60;;;5.03;;
60318;SDS011;46163;52.306;5.634;2023-12-14T04:25:06;4.90;;;4.40;;
60318;SDS011;46163;52.306;5.634;2023-12-14T04:27:31;5.63;;;4.38;;
60318;SDS011;46163;52.306;5.634;2023-12-14T04:29:57;5.93;;;4.40;;
60318;SDS011;46163;52.306;5.634;2023-12-14T04:32:22;7.35;;;4.05;;
60318;SDS011;46163;52.306;5.634;2023-12-14T04:34:47;5.80;;;4.18;;
60318;SDS011;46163;52.306;5.634;2023-12-14T04:37:13;4.28;;;3.63;;
60318;SDS011;46163;52.306;5.634;2023-12-14T04:39:38;4.85;;;4.35;;
60318;SDS011;46163;52.306;5.634;2023-12-14T04:42:03;4.10;;;3.28;;
60318;SDS011;46163;52.306;5.634;2023-12-14T04:44:29;3.75;;;3.35;;
60318;SDS011;46163;52.306;5.634;2023-12-14T04:46:54;5.45;;;3.75;;
60318;SDS011;46163;52.306;5.634;2023-12-14T04:49:19;4.22;;;3.83;;
60318;SDS011;46163;52.306;5.634;2023-12-14T04:51:45;3.47;;;3.15;;
60318;SDS011;46163;52.306;5.634;2023-12-14T04:54:10;4.38;;;3.78;;
60318;SDS011;46163;52.306;5.634;2023-12-14T04:56:36;3.80;;;3.17;;
60318;SDS011;46163;52.306;5.634;2023-12-14T04:59:01;10.30;;;4.10;;
60318;SDS011;46163;52.306;5.634;2023-12-14T05:01:27;3.10;;;2.80;;
60318;SDS011;46163;52.306;5.634;2023-12-14T05:03:52;6.47;;;4.03;;
60318;SDS011;46163;52.306;5.634;2023-12-14T05:06:18;3.28;;;2.97;;
60318;SDS011;46163;52.306;5.634;2023-12-14T05:08:44;15.82;;;3.17;;
60318;SDS011;46163;52.306;5.634;2023-12-14T05:11:09;2.40;;;2.28;;
60318;SDS011;46163;52.306;5.634;2023-12-14T05:13:34;3.80;;;3.08;;
60318;SDS011;46163;52.306;5.634;2023-12-14T05:16:00;2.97;;;2.72;;
60318;SDS011;46163;52.306;5.634;2023-12-14T05:18:26;2.65;;;2.35;;
60318;SDS011;46163;52.306;5.634;2023-12-14T05:20:52;2.65;;;2.45;;
60318;SDS011;46163;52.306;5.634;2023-12-14T05:23:17;4.03;;;3.50;;
60318;SDS011;46163;52.306;5.634;2023-12-14T05:25:43;2.90;;;2.70;;
60318;SDS011;46163;52.306;5.634;2023-12-14T05:28:09;3.47;;;3.10;;
60318;SDS011;46163;52.306;5.634;2023-12-14T05:30:34;3.55;;;3.10;;
60318;SDS011;46163;52.306;5.634;2023-12-14T05:33:00;2.90;;;2.60;;
60318;SDS011;46163;52.306;5.634;2023-12-14T05:35:26;2.58;;;2.38;;
60318;SDS011;46163;52.306;5.634;2023-12-14T05:37:51;3.20;;;2.90;;
60318;SDS011;46163;52.306;5.634;2023-12-14T05:40:17;3.38;;;3.08;;
60318;SDS011;46163;52.306;5.634;2023-12-14T05:42:42;3.53;;;3.22;;
60318;SDS011;46163;52.306;5.634;2023-12-14T05:45:09;2.92;;;2.45;;
60318;SDS011;46163;52.306;5.634;2023-12-14T05:47:35;2.53;;;2.25;;
60318;SDS011;46163;52.306;5.634;2023-12-14T05:50:01;2.45;;;2.28;;
60318;SDS011;46163;52.306;5.634;2023-12-14T05:52:27;4.22;;;3.55;;
60318;SDS011;46163;52.306;5.634;2023-12-14T05:54:52;2.53;;;2.38;;
60318;SDS011;46163;52.306;5.634;2023-12-14T05:57:18;3.30;;;3.05;;
60318;SDS011;46163;52.306;5.634;2023-12-14T05:59:43;3.72;;;2.80;;
60318;SDS011;46163;52.306;5.634;2023-12-14T06:02:09;2.90;;;2.70;;
60318;SDS011;46163;52.306;5.634;2023-12-14T06:04:34;3.10;;;2.85;;
60318;SDS011;46163;52.306;5.634;2023-12-14T06:07:00;4.13;;;3.60;;
60318;SDS011;46163;52.306;5.634;2023-12-14T06:09:25;2.95;;;2.75;;
60318;SDS011;46163;52.306;5.634;2023-12-14T06:11:59;3.10;;;2.78;;
60318;SDS011;46163;52.306;5.634;2023-12-14T06:14:27;3.13;;;2.83;;
60318;SDS011;46163;52.306;5.634;2023-12-14T06:16:54;2.85;;;2.65;;
60318;SDS011;46163;52.306;5.634;2023-12-14T06:19:19;2.63;;;2.40;;
60318;SDS011;46163;52.306;5.634;2023-12-14T06:21:44;2.10;;;2.00;;
60318;SDS011;46163;52.306;5.634;2023-12-14T06:24:10;5.80;;;3.40;;
60318;SDS011;46163;52.306;5.634;2023-12-14T06:26:40;3.17;;;1.65;;
60318;SDS011;46163;52.306;5.634;2023-12-14T06:29:09;3.67;;;2.88;;
60318;SDS011;46163;52.306;5.634;2023-12-14T06:31:36;2.83;;;2.63;;
60318;SDS011;46163;52.306;5.634;2023-12-14T06:34:01;2.10;;;2.00;;
60318;SDS011;46163;52.306;5.634;2023-12-14T06:36:29;6.00;;;2.60;;
60318;SDS011;46163;52.306;5.634;2023-12-14T06:38:55;2.80;;;2.60;;
60318;SDS011;46163;52.306;5.634;2023-12-14T06:41:22;2.95;;;2.75;;
60318;SDS011;46163;52.306;5.634;2023-12-14T06:43:48;3.25;;;3.03;;
60318;SDS011;46163;52.306;5.634;2023-12-14T06:46:15;2.88;;;2.67;;
60318;SDS011;46163;52.306;5.634;2023-12-14T06:48:41;3.20;;;2.90;;
60318;SDS011;46163;52.306;5.634;2023-12-14T06:51:06;2.80;;;2.58;;
60318;SDS011;46163;52.306;5.634;2023-12-14T06:53:32;3.83;;;2.67;;
60318;SDS011;46163;52.306;5.634;2023-12-14T06:55:57;3.05;;;2.75;;
60318;SDS011;46163;52.306;5.634;2023-12-14T06:58:22;1.88;;;1.80;;
60318;SDS011;46163;52.306;5.634;2023-12-14T07:00:48;1.73;;;1.63;;
60318;SDS011;46163;52.306;5.634;2023-12-14T07:03:13;1.70;;;1.55;;
60318;SDS011;46163;52.306;5.634;2023-12-14T07:05:39;2.50;;;2.30;;
60318;SDS011;46163;52.306;5.634;2023-12-14T07:08:05;2.95;;;2.67;;
60318;SDS011;46163;52.306;5.634;2023-12-14T07:10:30;2.05;;;1.92;;
60318;SDS011;46163;52.306;5.634;2023-12-14T07:12:56;3.53;;;3.03;;
60318;SDS011;46163;52.306;5.634;2023-12-14T07:15:21;2.65;;;2.45;;
60318;SDS011;46163;52.306;5.634;2023-12-14T07:17:47;3.42;;;2.97;;
60318;SDS011;46163;52.306;5.634;2023-12-14T07:20:12;2.60;;;2.42;;
60318;SDS011;46163;52.306;5.634;2023-12-14T07:22:38;3.08;;;2.75;;
60318;SDS011;46163;52.306;5.634;2023-12-14T07:25:03;3.17;;;2.92;;
60318;SDS011;46163;52.306;5.634;2023-12-14T07:27:29;2.42;;;2.25;;
60318;SDS011;46163;52.306;5.634;2023-12-14T07:29:55;2.50;;;2.30;;
60318;SDS011;46163;52.306;5.634;2023-12-14T07:32:21;3.22;;;2.92;;
60318;SDS011;46163;52.306;5.634;2023-12-14T07:34:46;2.63;;;2.42;;
60318;SDS011;46163;52.306;5.634;2023-12-14T07:37:12;2.60;;;2.40;;
60318;SDS011;46163;52.306;5.634;2023-12-14T07:39:38;3.10;;;2.65;;
60318;SDS011;46163;52.306;5.634;2023-12-14T07:42:03;1.92;;;1.83;;
60318;SDS011;46163;52.306;5.634;2023-12-14T07:44:30;3.30;;;2.75;;
60318;SDS011;46163;52.306;5.634;2023-12-14T07:49:46;1.38;;;1.38;;
60318;SDS011;46163;52.306;5.634;2023-12-14T07:52:11;4.10;;;2.90;;
60318;SDS011;46163;52.306;5.634;2023-12-14T07:54:38;2.73;;;2.53;;
60318;SDS011;46163;52.306;5.634;2023-12-14T07:57:04;5.22;;;3.75;;
60318;SDS011;46163;52.306;5.634;2023-12-14T07:59:29;2.55;;;2.35;;
60318;SDS011;46163;52.306;5.634;2023-12-14T08:01:55;2.85;;;2.65;;
60318;SDS011;46163;52.306;5.634;2023-12-14T08:04:20;3.10;;;2.83;;
60318;SDS011;46163;52.306;5.634;2023-12-14T08:06:45;2.83;;;2.63;;
60318;SDS011;46163;52.306;5.634;2023-12-14T08:09:11;3.78;;;3.38;;
60318;SDS011;46163;52.306;5.634;2023-12-14T08:11:36;2.60;;;2.40;;
60318;SDS011;46163;52.306;5.634;2023-12-14T08:14:02;3.13;;;2.83;;
60318;SDS011;46163;52.306;5.634;2023-12-14T08:16:28;3.25;;;2.95;;
60318;SDS011;46163;52.306;5.634;2023-12-14T08:18:53;3.03;;;2.80;;
60318;SDS011;46163;52.306;5.634;2023-12-14T08:21:19;2.45;;;2.25;;
60318;SDS011;46163;52.306;5.634;2023-12-14T08:23:44;2.45;;;2.28;;
60318;SDS011;46163;52.306;5.634;2023-12-14T08:26:10;3.15;;;2.80;;
60318;SDS011;46163;52.306;5.634;2023-12-14T08:28:38;3.60;;;3.30;;
60318;SDS011;46163;52.306;5.634;2023-12-14T08:31:06;2.63;;;2.42;;
60318;SDS011;46163;52.306;5.634;2023-12-14T08:33:31;3.40;;;3.10;;
60318;SDS011;46163;52.306;5.634;2023-12-14T08:35:57;2.95;;;2.72;;
60318;SDS011;46163;52.306;5.634;2023-12-14T08:38:22;6.10;;;3.55;;
60318;SDS011;46163;52.306;5.634;2023-12-14T08:40:48;3.67;;;3.25;;
60318;SDS011;46163;52.306;5.634;2023-12-14T08:43:14;4.18;;;2.75;;
60318;SDS011;46163;52.306;5.634;2023-12-14T08:45:39;3.33;;;2.95;;
60318;SDS011;46163;52.306;5.634;2023-12-14T08:48:04;3.25;;;2.95;;
60318;SDS011;46163;52.306;5.634;2023-12-14T08:50:30;2.92;;;2.72;;
60318;SDS011;46163;52.306;5.634;2023-12-14T08:52:56;3.85;;;2.88;;
60318;SDS011;46163;52.306;5.634;2023-12-14T08:55:23;4.82;;;4.30;;
60318;SDS011;46163;52.306;5.634;2023-12-14T08:57:49;3.38;;;2.65;;
60318;SDS011;46163;52.306;5.634;2023-12-14T09:00:15;1.83;;;1.73;;
60318;SDS011;46163;52.306;5.634;2023-12-14T09:02:42;2.53;;;2.05;;
60318;SDS011;46163;52.306;5.634;2023-12-14T09:05:09;2.00;;;1.90;;
60318;SDS011;46163;52.306;5.634;2023-12-14T09:07:34;2.97;;;2.70;;
60318;SDS011;46163;52.306;5.634;2023-12-14T09:09:59;3.40;;;3.10;;
60318;SDS011;46163;52.306;5.634;2023-12-14T09:12:25;2.40;;;2.20;;
60318;SDS011;46163;52.306;5.634;2023-12-14T09:14:50;2.25;;;2.15;;
60318;SDS011;46163;52.306;5.634;2023-12-14T09:17:15;5.72;;;2.92;;
60318;SDS011;46163;52.306;5.634;2023-12-14T09:19:41;2.90;;;2.70;;
60318;SDS011;46163;52.306;5.634;2023-12-14T09:22:06;2.95;;;2.65;;
60318;SDS011;46163;52.306;5.634;2023-12-14T09:24:32;2.95;;;2.75;;
60318;SDS011;46163;52.306;5.634;2023-12-14T09:26:57;3.17;;;2.90;;
60318;SDS011;46163;52.306;5.634;2023-12-14T09:29:22;4.18;;;2.40;;
60318;SDS011;46163;52.306;5.634;2023-12-14T09:31:48;4.65;;;2.88;;
60318;SDS011;46163;52.306;5.634;2023-12-14T09:34:13;2.78;;;2.53;;
60318;SDS011;46163;52.306;5.634;2023-12-14T09:36:39;6.60;;;2.85;;
60318;SDS011;46163;52.306;5.634;2023-12-14T09:39:05;2.85;;;2.60;;
60318;SDS011;46163;52.306;5.634;2023-12-14T09:41:30;3.30;;;2.88;;
60318;SDS011;46163;52.306;5.634;2023-12-14T09:43:56;3.03;;;2.75;;
60318;SDS011;46163;52.306;5.634;2023-12-14T09:46:23;2.03;;;1.92;;
60318;SDS011;46163;52.306;5.634;2023-12-14T09:48:50;1.88;;;1.77;;
60318;SDS011;46163;52.306;5.634;2023-12-14T09:51:16;3.85;;;2.85;;
60318;SDS011;46163;52.306;5.634;2023-12-14T09:53:42;2.30;;;2.10;;
60318;SDS011;46163;52.306;5.634;2023-12-14T09:56:08;4.00;;;3.15;;
60318;SDS011;46163;52.306;5.634;2023-12-14T09:58:34;4.25;;;3.50;;
60318;SDS011;46163;52.306;5.634;2023-12-14T10:01:00;2.03;;;1.92;;
60318;SDS011;46163;52.306;5.634;2023-12-14T10:03:29;2.60;;;2.40;;
60318;SDS011;46163;52.306;5.634;2023-12-14T10:05:57;3.67;;;3.38;;
60318;SDS011;46163;52.306;5.634;2023-12-14T10:08:25;2.50;;;2.35;;
60318;SDS011;46163;52.306;5.634;2023-12-14T10:10:52;3.63;;;3.25;;
60318;SDS011;46163;52.306;5.634;2023-12-14T10:13:19;2.25;;;2.15;;
60318;SDS011;46163;52.306;5.634;2023-12-14T10:15:45;4.10;;;2.80;;
60318;SDS011;46163;52.306;5.634;2023-12-14T10:18:23;4.03;;;3.28;;
60318;SDS011;46163;52.306;5.634;2023-12-14T10:20:50;4.13;;;2.85;;
60318;SDS011;46163;52.306;5.634;2023-12-14T10:23:16;2.90;;;2.58;;
60318;SDS011;46163;52.306;5.634;2023-12-14T10:25:42;5.85;;;3.92;;
60318;SDS011;46163;52.306;5.634;2023-12-14T10:28:11;3.20;;;2.90;;
60318;SDS011;46163;52.306;5.634;2023-12-14T10:30:38;2.75;;;2.55;;
60318;SDS011;46163;52.306;5.634;2023-12-14T10:33:04;3.38;;;2.67;;
60318;SDS011;46163;52.306;5.634;2023-12-14T10:35:30;3.85;;;2.30;;
60318;SDS011;46163;52.306;5.634;2023-12-14T10:37:55;3.22;;;2.92;;
60318;SDS011;46163;52.306;5.634;2023-12-14T10:40:26;3.00;;;2.78;;
60318;SDS011;46163;52.306;5.634;2023-12-14T10:42:53;3.33;;;2.90;;
60318;SDS011;46163;52.306;5.634;2023-12-14T10:45:25;6.85;;;3.20;;
60318;SDS011;46163;52.306;5.634;2023-12-14T10:47:54;3.47;;;3.17;;
60318;SDS011;46163;52.306;5.634;2023-12-14T10:50:23;3.78;;;3.35;;
60318;SDS011;46163;52.306;5.634;2023-12-14T10:52:49;4.43;;;3.58;;
60318;SDS011;46163;52.306;5.634;2023-12-14T10:55:18;3.45;;;3.15;;
60318;SDS011;46163;52.306;5.634;2023-12-14T10:58:04;4.50;;;3.47;;
60318;SDS011;46163;52.306;5.634;2023-12-14T11:00:33;5.00;;;3.80;;
60318;SDS011;46163;52.306;5.634;2023-12-14T11:02:58;5.20;;;3.78;;
60318;SDS011;46163;52.306;5.634;2023-12-14T11:05:26;3.20;;;2.90;;
60318;SDS011;46163;52.306;5.634;2023-12-14T11:07:55;3.45;;;2.95;;
60318;SDS011;46163;52.306;5.634;2023-12-14T11:10:27;4.38;;;3.90;;
60318;SDS011;46163;52.306;5.634;2023-12-14T11:12:59;3.83;;;3.50;;
60318;SDS011;46163;52.306;5.634;2023-12-14T11:15:27;3.28;;;2.97;;
60318;SDS011;46163;52.306;5.634;2023-12-14T11:23:11;4.60;;;3.47;;
60318;SDS011;46163;52.306;5.634;2023-12-14T11:25:38;4.07;;;3.67;;
60318;SDS011;46163;52.306;5.634;2023-12-14T11:28:06;3.63;;;3.20;;
60318;SDS011;46163;52.306;5.634;2023-12-14T11:30:37;4.50;;;3.72;;
60318;SDS011;46163;52.306;5.634;2023-12-14T11:33:02;5.00;;;3.92;;
60318;SDS011;46163;52.306;5.634;2023-12-14T11:35:28;6.22;;;3.90;;
60318;SDS011;46163;52.306;5.634;2023-12-14T11:37:54;5.13;;;3.65;;
60318;SDS011;46163;52.306;5.634;2023-12-14T11:40:22;5.13;;;3.00;;
60318;SDS011;46163;52.306;5.634;2023-12-14T11:42:58;3.75;;;3.30;;
60318;SDS011;46163;52.306;5.634;2023-12-14T11:45:24;6.28;;;2.80;;
60318;SDS011;46163;52.306;5.634;2023-12-14T11:47:51;3.47;;;3.10;;
60318;SDS011;46163;52.306;5.634;2023-12-14T11:50:16;3.20;;;2.90;;
60318;SDS011;46163;52.306;5.634;2023-12-14T11:52:42;4.80;;;3.65;;
60318;SDS011;46163;52.306;5.634;2023-12-14T11:55:09;3.20;;;2.90;;
60318;SDS011;46163;52.306;5.634;2023-12-14T11:57:39;4.35;;;3.33;;
60318;SDS011;46163;52.306;5.634;2023-12-14T12:00:05;3.63;;;3.08;;
60318;SDS011;46163;52.306;5.634;2023-12-14T12:02:32;3.53;;;3.22;;
60318;SDS011;46163;52.306;5.634;2023-12-14T12:04:59;8.18;;;3.30;;
60318;SDS011;46163;52.306;5.634;2023-12-14T12:07:24;3.97;;;3.38;;
60318;SDS011;46163;52.306;5.634;2023-12-14T12:09:50;5.45;;;3.50;;
60318;SDS011;46163;52.306;5.634;2023-12-14T12:12:15;4.68;;;2.95;;
60318;SDS011;46163;52.306;5.634;2023-12-14T12:14:42;5.18;;;3.13;;
60318;SDS011;46163;52.306;5.634;2023-12-14T12:17:08;6.45;;;3.25;;
60318;SDS011;46163;52.306;5.634;2023-12-14T12:19:34;3.50;;;3.13;;
60318;SDS011;46163;52.306;5.634;2023-12-14T12:22:00;3.35;;;3.05;;
60318;SDS011;46163;52.306;5.634;2023-12-14T12:24:26;3.30;;;3.00;;
60318;SDS011;46163;52.306;5.634;2023-12-14T12:26:52;4.72;;;3.50;;
60318;SDS011;46163;52.306;5.634;2023-12-14T12:29:18;4.22;;;3.25;;
60318;SDS011;46163;52.306;5.634;2023-12-14T12:31:44;4.05;;;3.42;;
60318;SDS011;46163;52.306;5.634;2023-12-14T12:34:10;5.38;;;3.35;;
60318;SDS011;46163;52.306;5.634;2023-12-14T12:36:37;3.33;;;3.03;;
60318;SDS011;46163;52.306;5.634;2023-12-14T12:39:03;3.92;;;3.10;;
60318;SDS011;46163;52.306;5.634;2023-12-14T12:41:30;4.03;;;3.63;;
60318;SDS011;46163;52.306;5.634;2023-12-14T12:43:57;4.93;;;3.25;;
60318;SDS011;46163;52.306;5.634;2023-12-14T12:46:22;4.15;;;3.70;;
60318;SDS011;46163;52.306;5.634;2023-12-14T12:48:48;3.42;;;3.10;;
60318;SDS011;46163;52.306;5.634;2023-12-14T12:51:14;5.90;;;3.83;;
60318;SDS011;46163;52.306;5.634;2023-12-14T12:53:40;5.00;;;3.65;;
60318;SDS011;46163;52.306;5.634;2023-12-14T12:56:05;3.50;;;2.80;;
60318;SDS011;46163;52.306;5.634;2023-12-14T12:58:31;4.93;;;3.80;;
60318;SDS011;46163;52.306;5.634;2023-12-14T13:00:57;7.15;;;4.07;;
60318;SDS011;46163;52.306;5.634;2023-12-14T13:03:22;4.78;;;3.88;;
60318;SDS011;46163;52.306;5.634;2023-12-14T13:05:48;4.72;;;3.97;;
60318;SDS011;46163;52.306;5.634;2023-12-14T13:08:13;5.75;;;4.10;;
60318;SDS011;46163;52.306;5.634;2023-12-14T13:10:39;4.90;;;4.05;;
60318;SDS011;46163;52.306;5.634;2023-12-14T13:13:04;7.72;;;3.30;;
60318;SDS011;46163;52.306;5.634;2023-12-14T13:15:31;3.90;;;3.50;;
60318;SDS011;46163;52.306;5.634;2023-12-14T13:17:57;3.55;;;3.22;;
60318;SDS011;46163;52.306;5.634;2023-12-14T13:20:23;4.40;;;3.97;;
60318;SDS011;46163;52.306;5.634;2023-12-14T13:22:49;4.50;;;3.97;;
60318;SDS011;46163;52.306;5.634;2023-12-14T13:25:15;4.82;;;3.85;;
60318;SDS011;46163;52.306;5.634;2023-12-14T13:27:41;3.80;;;3.40;;
60318;SDS011;46163;52.306;5.634;2023-12-14T13:30:08;4.78;;;3.97;;
60318;SDS011;46163;52.306;5.634;2023-12-14T13:32:34;6.40;;;3.95;;
60318;SDS011;46163;52.306;5.634;2023-12-14T13:34:59;4.80;;;4.03;;
60318;SDS011;46163;52.306;5.634;2023-12-14T13:37:25;5.13;;;4.00;;
60318;SDS011;46163;52.306;5.634;2023-12-14T13:39:50;4.80;;;3.83;;
60318;SDS011;46163;52.306;5.634;2023-12-14T13:42:18;5.07;;;3.63;;
60318;SDS011;46163;52.306;5.634;2023-12-14T13:44:44;5.05;;;4.28;;
60318;SDS011;46163;52.306;5.634;2023-12-14T13:47:10;4.20;;;3.80;;
60318;SDS011;46163;52.306;5.634;2023-12-14T13:49:36;4.25;;;3.88;;
60318;SDS011;46163;52.306;5.634;2023-12-14T13:52:02;4.85;;;3.95;;
60318;SDS011;46163;52.306;5.634;2023-12-14T13:54:28;4.78;;;4.13;;
60318;SDS011;46163;52.306;5.634;2023-12-14T13:56:53;4.22;;;3.75;;
60318;SDS011;46163;52.306;5.634;2023-12-14T13:59:19;5.32;;;3.70;;
60318;SDS011;46163;52.306;5.634;2023-12-14T14:01:44;4.95;;;3.60;;
60318;SDS011;46163;52.306;5.634;2023-12-14T14:04:10;5.65;;;4.45;;
60318;SDS011;46163;52.306;5.634;2023-12-14T14:06:36;5.57;;;4.63;;
60318;SDS011;46163;52.306;5.634;2023-12-14T14:09:02;4.65;;;4.00;;
60318;SDS011;46163;52.306;5.634;2023-12-14T14:11:29;7.20;;;4.60;;
60318;SDS011;46163;52.306;5.634;2023-12-14T14:13:54;4.78;;;3.95;;
60318;SDS011;46163;52.306;5.634;2023-12-14T14:16:20;4.57;;;4.13;;
60318;SDS011;46163;52.306;5.634;2023-12-14T14:18:45;4.82;;;4.32;;
60318;SDS011;46163;52.306;5.634;2023-12-14T14:21:11;5.32;;;4.45;;
60318;SDS011;46163;52.306;5.634;2023-12-14T14:23:37;5.65;;;4.78;;
60318;SDS011;46163;52.306;5.634;2023-12-14T14:26:02;9.27;;;5.22;;
60318;SDS011;46163;52.306;5.634;2023-12-14T14:28:28;5.63;;;4.40;;
60318;SDS011;46163;52.306;5.634;2023-12-14T14:30:54;8.40;;;4.78;;
60318;SDS011;46163;52.306;5.634;2023-12-14T14:33:19;6.55;;;5.85;;
60318;SDS011;46163;52.306;5.634;2023-12-14T14:35:45;6.93;;;5.47;;
60318;SDS011;46163;52.306;5.634;2023-12-14T14:38:12;8.10;;;4.38;;
60318;SDS011;46163;52.306;5.634;2023-12-14T14:40:38;7.30;;;5.03;;
60318;SDS011;46163;52.306;5.634;2023-12-14T14:43:05;6.85;;;4.95;;
60318;SDS011;46163;52.306;5.634;2023-12-14T14:45:30;6.32;;;4.80;;
60318;SDS011;46163;52.306;5.634;2023-12-14T14:47:56;4.68;;;4.28;;